createdAt,value
2023-05-04T00:01:38.867Z,3.36
2023-05-04T00:04:08.835Z,3.34
2023-05-04T00:06:37.310Z,3.32
2023-05-04T00:09:06.804Z,3.33
2023-05-04T00:11:35.345Z,3.30
2023-05-04T00:14:03.563Z,3.26
2023-05-04T00:16:31.852Z,3.25
2023-05-04T00:24:15.478Z,3.15
2023-05-04T00:26:46.361Z,3.11
2023-05-04T00:29:14.599Z,3.06
2023-05-04T00:31:42.890Z,3.05
2023-05-04T00:38:30.039Z,2.91
2023-05-04T00:40:59.130Z,2.87
2023-05-04T00:43:28.832Z,2.83
2023-05-04T00:45:57.126Z,2.83
2023-05-04T00:57:02.179Z,2.69
2023-05-04T00:59:32.059Z,2.68
2023-05-04T01:02:00.359Z,2.66
2023-05-04T01:04:29.266Z,2.66
2023-05-04T01:15:12.450Z,2.49
2023-05-04T01:17:40.824Z,2.46
2023-05-04T01:20:10.661Z,2.46
2023-05-04T01:23:37.483Z,2.44
2023-05-04T01:26:17.425Z,2.41
2023-05-04T01:28:51.453Z,2.37
2023-05-04T01:31:19.924Z,2.33
2023-05-04T01:42:25.396Z,2.32
2023-05-04T01:44:53.704Z,2.29
2023-05-04T01:47:21.996Z,2.29
2023-05-04T01:49:51.204Z,2.26
2023-05-04T01:56:38.077Z,2.23
2023-05-04T01:59:08.136Z,2.18
2023-05-04T02:01:36.633Z,2.18
2023-05-04T02:04:05.441Z,2.17
2023-05-04T02:15:05.729Z,2.13
2023-05-04T02:17:34.048Z,2.11
2023-05-04T02:20:02.636Z,2.09
2023-05-04T02:22:31.330Z,2.10
2023-05-04T02:24:59.928Z,2.09
2023-05-04T02:27:28.179Z,2.08
2023-05-04T02:29:58.411Z,2.06
2023-05-04T02:32:28.081Z,2.02
2023-05-04T02:40:16.316Z,1.98
2023-05-04T02:42:44.590Z,1.95
2023-05-04T02:45:13.797Z,1.94
2023-05-04T02:47:43.547Z,1.91
2023-05-04T02:50:12.427Z,1.85
2023-05-04T02:56:59.123Z,1.81
2023-05-04T02:59:27.766Z,1.81
2023-05-04T03:01:56.068Z,1.80
2023-05-04T03:04:25.924Z,1.80
2023-05-04T03:15:17.080Z,1.77
2023-05-04T03:17:45.515Z,1.74
2023-05-04T03:20:16.111Z,1.77
2023-05-04T03:22:44.694Z,1.76
2023-05-04T03:25:13.535Z,1.76
2023-05-04T03:27:41.784Z,1.75
2023-05-04T03:30:10.765Z,1.75
2023-05-04T03:32:40.962Z,1.74
2023-05-04T03:40:38.580Z,1.73
2023-05-04T03:43:08.352Z,1.75
2023-05-04T03:45:37.191Z,1.74
2023-05-04T03:48:05.584Z,1.73
2023-05-04T03:50:34.246Z,1.71
2023-05-04T03:53:02.513Z,1.72
2023-05-04T03:55:30.980Z,1.75
2023-05-04T03:57:59.299Z,1.75
2023-05-04T04:00:30.007Z,1.76
2023-05-04T04:03:08.526Z,1.82
2023-05-04T04:05:38.301Z,1.86
2023-05-04T04:08:07.204Z,1.94
2023-05-04T04:10:35.646Z,1.98
2023-05-04T04:17:29.373Z,2.11
2023-05-04T04:19:57.630Z,2.17
2023-05-04T04:22:26.417Z,2.20
2023-05-04T04:24:54.672Z,2.26
2023-05-04T04:28:12.243Z,2.32
2023-05-04T04:30:40.802Z,2.37
2023-05-04T04:33:10.808Z,2.44
2023-05-04T04:35:39.114Z,2.49
2023-05-04T04:42:25.837Z,2.72
2023-05-04T04:44:54.531Z,2.79
2023-05-04T04:47:22.776Z,2.86
2023-05-04T04:49:52.430Z,2.97
2023-05-04T04:57:13.800Z,3.27
2023-05-04T04:59:42.326Z,3.43
2023-05-04T05:02:10.829Z,3.56
2023-05-04T05:04:40.996Z,3.68
2023-05-04T05:10:17.684Z,3.92
2023-05-04T05:12:46.059Z,4.07
2023-05-04T05:15:14.452Z,4.24
2023-05-04T05:17:42.734Z,4.40
2023-05-04T05:20:11.895Z,4.56
2023-05-04T05:22:41.624Z,4.73
2023-05-04T05:25:10.543Z,4.92
2023-05-04T05:27:38.897Z,5.09
2023-05-04T05:30:08.363Z,5.29
2023-05-04T05:32:36.668Z,5.48
2023-05-04T05:35:05.705Z,5.72
2023-05-04T05:37:34.001Z,5.91
2023-05-04T05:40:06.191Z,6.09
2023-05-04T05:42:34.693Z,6.26
2023-05-04T05:45:04.836Z,6.46
2023-05-04T05:47:33.094Z,6.68
2023-05-04T05:54:19.768Z,7.29
2023-05-04T05:56:49.823Z,7.54
2023-05-04T05:59:18.133Z,7.80
2023-05-04T06:02:14.630Z,8.10
2023-05-04T06:04:43.249Z,8.38
2023-05-04T06:07:11.501Z,8.67
2023-05-04T06:09:39.763Z,8.91
2023-05-04T06:12:59.224Z,9.15
2023-05-04T06:15:28.943Z,9.42
2023-05-04T06:17:57.240Z,9.61
2023-05-04T06:20:25.593Z,9.76
2023-05-04T06:22:54.215Z,9.99
2023-05-04T06:25:22.496Z,10.15
2023-05-04T06:27:50.886Z,10.23
2023-05-04T06:30:19.420Z,10.35
2023-05-04T06:32:49.043Z,10.57
2023-05-04T06:35:17.973Z,10.77
2023-05-04T06:37:46.498Z,10.93
2023-05-04T06:40:15.523Z,11.18
2023-05-04T06:42:43.763Z,11.32
2023-05-04T06:45:49.192Z,11.58
2023-05-04T06:48:18.823Z,11.75
2023-05-04T06:50:47.469Z,11.98
2023-05-04T06:53:15.715Z,12.24
2023-05-04T06:55:43.945Z,12.38
2023-05-04T07:02:37.050Z,12.98
2023-05-04T07:05:07.673Z,13.17
2023-05-04T07:07:36.342Z,13.32
2023-05-04T07:10:04.821Z,13.42
2023-05-04T07:12:33.209Z,13.43
2023-05-04T07:15:01.561Z,13.53
2023-05-04T07:17:29.834Z,13.75
2023-05-04T07:19:58.181Z,13.89
2023-05-04T07:22:56.569Z,14.14
2023-05-04T07:25:25.333Z,14.35
2023-05-04T07:27:53.703Z,14.36
2023-05-04T07:30:22.125Z,14.40
2023-05-04T07:32:50.431Z,14.44
2023-05-04T07:35:19.029Z,14.51
2023-05-04T07:37:47.620Z,14.41
2023-05-04T07:40:17.281Z,14.44
2023-05-04T07:46:16.585Z,14.57
2023-05-04T07:48:44.816Z,14.51
2023-05-04T07:51:16.580Z,14.46
2023-05-04T07:53:44.818Z,14.59
2023-05-04T07:56:14.617Z,14.88
2023-05-04T07:58:42.940Z,15.18
2023-05-04T08:01:11.151Z,15.25
2023-05-04T08:03:39.659Z,15.29
2023-05-04T08:10:20.028Z,15.39
2023-05-04T08:12:49.673Z,15.44
2023-05-04T08:15:17.926Z,15.60
2023-05-04T08:17:46.306Z,15.67
2023-05-04T08:20:39.492Z,15.68
2023-05-04T08:23:07.876Z,15.66
2023-05-04T08:25:36.141Z,15.76
2023-05-04T08:28:06.577Z,15.80
2023-05-04T08:31:24.816Z,15.91
2023-05-04T08:33:53.051Z,15.99
2023-05-04T08:36:21.345Z,16.14
2023-05-04T08:38:50.679Z,16.12
2023-05-04T08:44:51.441Z,16.21
2023-05-04T08:47:19.654Z,16.47
2023-05-04T08:49:47.881Z,16.54
2023-05-04T08:52:16.120Z,16.68
2023-05-04T08:54:45.045Z,16.91
2023-05-04T08:57:13.894Z,17.09
2023-05-04T08:59:42.174Z,16.99
2023-05-04T09:02:11.959Z,16.97
2023-05-04T09:08:40.180Z,17.49
2023-05-04T09:11:08.509Z,17.73
2023-05-04T09:13:37.130Z,17.90
2023-05-04T09:16:05.926Z,18.02
2023-05-04T09:18:39.434Z,18.12
2023-05-04T09:21:07.899Z,18.10
2023-05-04T09:23:46.587Z,18.28
2023-05-04T09:26:15.105Z,18.22
2023-05-04T09:32:55.313Z,18.22
2023-05-04T09:35:33.943Z,18.61
2023-05-04T09:38:02.744Z,18.59
2023-05-04T09:40:34.203Z,18.69
2023-05-04T09:44:16.110Z,18.88
2023-05-04T09:46:44.862Z,19.27
2023-05-04T09:49:13.873Z,19.58
2023-05-04T09:51:43.511Z,20.08
2023-05-04T09:55:01.299Z,20.09
2023-05-04T09:57:29.490Z,19.76
2023-05-04T09:59:57.991Z,20.04
2023-05-04T10:02:26.306Z,20.18
2023-05-04T10:04:55.007Z,20.67
2023-05-04T10:11:50.349Z,20.76
2023-05-04T10:14:18.963Z,21.18
2023-05-04T10:16:51.702Z,21.40
2023-05-04T10:20:05.385Z,21.19
2023-05-04T10:22:40.903Z,21.66
2023-05-04T10:25:20.867Z,22.01
2023-05-04T10:27:58.331Z,21.89
2023-05-04T10:30:27.143Z,22.10
2023-05-04T10:32:58.872Z,22.49
2023-05-04T10:35:27.651Z,22.50
2023-05-04T10:37:56.706Z,22.50
2023-05-04T10:44:13.536Z,22.40
2023-05-04T10:46:41.843Z,22.69
2023-05-04T10:49:18.084Z,22.94
2023-05-04T10:51:49.350Z,22.90
2023-05-04T10:54:21.116Z,22.96
2023-05-04T10:56:49.474Z,23.22
2023-05-04T10:59:19.231Z,22.83
2023-05-04T11:02:49.057Z,22.45
2023-05-04T11:05:20.187Z,22.56
2023-05-04T11:07:53.236Z,22.32
2023-05-04T11:10:22.376Z,22.02
2023-05-04T11:13:55.568Z,21.99
2023-05-04T11:16:25.789Z,21.79
2023-05-04T11:18:54.786Z,21.69
2023-05-04T11:21:26.177Z,22.01
2023-05-04T11:24:12.884Z,22.47
2023-05-04T11:26:50.460Z,22.86
2023-05-04T11:29:21.305Z,23.19
2023-05-04T11:32:00.387Z,22.47
2023-05-04T11:34:59.272Z,22.33
2023-05-04T11:37:28.591Z,22.62
2023-05-04T11:39:58.218Z,22.85
2023-05-04T11:42:26.478Z,23.01
2023-05-04T11:44:55.854Z,22.86
2023-05-04T11:47:26.718Z,22.65
2023-05-04T11:49:55.012Z,22.46
2023-05-04T11:52:24.276Z,21.90
2023-05-04T11:54:57.051Z,21.89
2023-05-04T11:57:26.338Z,21.52
2023-05-04T11:59:56.543Z,21.23
2023-05-04T12:02:27.043Z,21.31
2023-05-04T12:04:55.599Z,21.33
2023-05-04T12:07:26.476Z,21.16
2023-05-04T12:09:54.748Z,21.35
2023-05-04T12:12:25.979Z,21.54
2023-05-04T12:14:58.866Z,21.50
2023-05-04T12:17:44.637Z,21.29
2023-05-04T12:20:13.755Z,21.18
2023-05-04T12:22:42.009Z,20.90
2023-05-04T12:25:11.427Z,20.80
2023-05-04T12:31:58.871Z,20.87
2023-05-04T12:34:28.559Z,20.80
2023-05-04T12:36:56.784Z,20.86
2023-05-04T12:39:25.539Z,20.73
2023-05-04T12:41:53.782Z,20.49
2023-05-04T12:44:22.094Z,20.47
2023-05-04T12:46:50.430Z,20.45
2023-05-04T12:49:18.977Z,20.54
2023-05-04T12:56:06.673Z,20.42
2023-05-04T12:58:35.028Z,20.51
2023-05-04T13:01:03.321Z,20.38
2023-05-04T13:03:31.855Z,20.33
2023-05-04T13:07:02.220Z,20.52
2023-05-04T13:09:30.480Z,20.48
2023-05-04T13:12:01.993Z,20.43
2023-05-04T13:14:30.322Z,20.52
2023-05-04T13:16:59.001Z,20.40
2023-05-04T13:19:27.431Z,20.22
2023-05-04T13:21:56.001Z,20.14
2023-05-04T13:24:24.271Z,19.99
2023-05-04T13:26:52.554Z,19.87
2023-05-04T13:29:22.166Z,19.81
2023-05-04T13:31:50.565Z,19.72
2023-05-04T13:34:19.044Z,19.68
2023-05-04T13:36:48.039Z,19.75
2023-05-04T13:40:29.956Z,19.81
2023-05-04T13:42:58.487Z,19.76
2023-05-04T13:45:28.385Z,19.86
2023-05-04T13:47:56.874Z,20.08
2023-05-04T13:50:25.158Z,20.08
2023-05-04T13:52:53.973Z,19.99
2023-05-04T13:55:22.526Z,20.05
2023-05-04T13:57:52.081Z,20.09
2023-05-04T14:00:20.995Z,19.93
2023-05-04T14:02:50.723Z,20.04
2023-05-04T14:05:19.329Z,20.09
2023-05-04T14:07:48.205Z,20.22
2023-05-04T14:10:16.444Z,20.30
2023-05-04T14:12:44.800Z,20.09
2023-05-04T14:15:13.420Z,19.94
2023-05-04T14:17:41.659Z,20.01
2023-05-04T14:20:12.067Z,20.11
2023-05-04T14:23:05.751Z,20.17
2023-05-04T14:25:34.368Z,20.23
2023-05-04T14:28:02.719Z,20.15
2023-05-04T14:30:31.722Z,20.19
2023-05-04T14:37:29.037Z,20.28
2023-05-04T14:39:57.262Z,20.42
2023-05-04T14:42:25.583Z,20.47
2023-05-04T14:44:54.067Z,20.61
2023-05-04T14:47:22.748Z,20.74
2023-05-04T14:50:28.780Z,20.84
2023-05-04T14:52:58.524Z,20.95
2023-05-04T14:55:26.834Z,21.11
2023-05-04T14:57:55.045Z,21.21
2023-05-04T15:00:24.102Z,21.16
2023-05-04T15:07:10.947Z,20.89
2023-05-04T15:09:40.611Z,20.85
2023-05-04T15:12:09.714Z,20.74
2023-05-04T15:14:38.670Z,20.72
2023-05-04T15:18:02.423Z,20.56
2023-05-04T15:20:30.848Z,20.38
2023-05-04T15:23:00.167Z,20.25
2023-05-04T15:25:29.874Z,20.34
2023-05-04T15:27:58.645Z,20.39
2023-05-04T15:34:48.168Z,20.19
2023-05-04T15:37:28.803Z,20.24
2023-05-04T15:39:58.222Z,20.28
2023-05-04T15:42:29.361Z,20.26
2023-05-04T15:44:57.626Z,20.32
2023-05-04T15:47:26.164Z,20.52
2023-05-04T15:49:54.449Z,20.61
2023-05-04T15:52:23.956Z,20.62
2023-05-04T15:55:26.533Z,20.58
2023-05-04T15:57:56.467Z,20.45
2023-05-04T16:00:25.970Z,20.40
2023-05-04T16:02:54.476Z,20.19
2023-05-04T16:08:10.254Z,19.86
2023-05-04T16:10:38.477Z,19.72
2023-05-04T16:13:11.376Z,19.65
2023-05-04T16:15:40.372Z,19.61
2023-05-04T16:19:25.341Z,19.35
2023-05-04T16:21:53.582Z,19.21
2023-05-04T16:24:21.812Z,19.12
2023-05-04T16:26:51.722Z,19.01
2023-05-04T16:33:20.999Z,18.60
2023-05-04T16:35:49.213Z,18.43
2023-05-04T16:38:19.482Z,18.24
2023-05-04T16:40:47.821Z,18.12
2023-05-04T16:43:40.563Z,18.02
2023-05-04T16:46:09.175Z,17.93
2023-05-04T16:48:40.075Z,17.87
2023-05-04T16:51:08.606Z,17.79
2023-05-04T16:57:57.352Z,17.55
2023-05-04T17:00:26.358Z,17.47
2023-05-04T17:02:54.685Z,17.45
2023-05-04T17:05:24.463Z,17.48
2023-05-04T17:07:52.695Z,17.44
2023-05-04T17:10:21.006Z,17.34
2023-05-04T17:12:49.487Z,17.26
2023-05-04T17:15:17.806Z,17.18
2023-05-04T17:17:46.491Z,17.13
2023-05-04T17:20:15.348Z,17.03
2023-05-04T17:22:45.214Z,16.93
2023-05-04T17:25:13.753Z,16.86
2023-05-04T17:32:00.435Z,16.73
2023-05-04T17:34:28.820Z,16.66
2023-05-04T17:36:57.140Z,16.53
2023-05-04T17:39:26.831Z,16.31
2023-05-04T17:41:56.340Z,16.15
2023-05-04T17:44:25.969Z,16.04
2023-05-04T17:46:54.225Z,15.95
2023-05-04T17:49:22.497Z,15.90
2023-05-04T17:51:50.787Z,15.77
2023-05-04T17:54:19.295Z,15.64
2023-05-04T17:56:48.975Z,15.42
2023-05-04T17:59:18.011Z,15.23
2023-05-04T18:01:47.131Z,15.11
2023-05-04T18:04:15.793Z,14.93
2023-05-04T18:06:44.405Z,14.79
2023-05-04T18:09:12.862Z,14.60
2023-05-04T18:11:41.097Z,14.46
2023-05-04T18:14:10.824Z,14.33
2023-05-04T18:16:39.465Z,14.15
2023-05-04T18:19:08.151Z,14.01
2023-05-04T18:21:37.396Z,13.88
2023-05-04T18:32:43.482Z,13.29
2023-05-04T18:35:11.824Z,13.17
2023-05-04T18:37:40.160Z,13.01
2023-05-04T18:40:10.257Z,12.89
2023-05-04T18:42:38.750Z,12.76
2023-05-04T18:45:08.372Z,12.64
2023-05-04T18:47:36.700Z,12.52
2023-05-04T18:50:07.391Z,12.43
2023-05-04T18:57:50.966Z,12.11
2023-05-04T19:00:20.044Z,12.02
2023-05-04T19:02:48.364Z,11.92
2023-05-04T19:05:18.171Z,11.82
2023-05-04T19:11:59.439Z,11.52
2023-05-04T19:14:30.499Z,11.41
2023-05-04T19:17:00.785Z,11.34
2023-05-04T19:19:29.399Z,11.20
2023-05-04T19:21:59.047Z,11.11
2023-05-04T19:24:27.620Z,11.06
2023-05-04T19:26:56.063Z,11.00
2023-05-04T19:29:24.351Z,10.90
2023-05-04T19:36:17.120Z,10.65
2023-05-04T19:38:47.338Z,10.62
2023-05-04T19:41:15.601Z,10.57
2023-05-04T19:43:43.875Z,10.59
2023-05-04T19:47:03.553Z,10.81
2023-05-04T19:49:32.337Z,10.86
2023-05-04T19:52:00.657Z,10.92
2023-05-04T19:54:30.556Z,11.03
2023-05-04T20:01:17.100Z,11.42
2023-05-04T20:03:45.788Z,11.47
2023-05-04T20:06:14.481Z,11.56
2023-05-04T20:08:42.693Z,11.58
2023-05-04T20:16:30.109Z,11.62
2023-05-04T20:19:02.773Z,11.57
2023-05-04T20:21:32.285Z,11.58
2023-05-04T20:24:00.587Z,11.56
2023-05-04T20:31:42.539Z,11.61
2023-05-04T20:34:12.248Z,11.62
2023-05-04T20:36:40.556Z,11.58
2023-05-04T20:39:08.973Z,11.59
2023-05-04T20:41:38.119Z,11.71
2023-05-04T20:44:06.734Z,11.73
2023-05-04T20:46:35.667Z,11.81
2023-05-04T20:49:04.113Z,11.80
2023-05-04T20:51:34.097Z,11.76
2023-05-04T21:07:46.833Z,11.63
2023-05-04T21:10:15.421Z,11.65
2023-05-04T21:12:43.730Z,11.76
2023-05-04T21:15:13.297Z,11.77
2023-05-04T21:31:06.488Z,11.56
2023-05-04T21:33:34.845Z,11.54
2023-05-04T21:36:12.026Z,11.53
2023-05-04T21:38:40.246Z,11.47
2023-05-04T21:54:05.474Z,11.45
2023-05-04T21:56:33.776Z,11.42
2023-05-04T21:59:02.002Z,11.49
2023-05-04T22:01:30.590Z,11.47
2023-05-04T22:47:08.790Z,11.20
2023-05-04T22:49:37.082Z,11.18
2023-05-04T22:52:06.111Z,11.19
2023-05-04T22:57:55.031Z,11.20
2023-05-04T23:00:23.687Z,11.22
2023-05-04T23:02:53.391Z,11.24
2023-05-04T23:05:22.288Z,11.28
2023-05-04T23:16:27.121Z,11.12
2023-05-04T23:18:57.079Z,11.07
2023-05-04T23:21:25.497Z,11.05
2023-05-04T23:23:54.206Z,11.05
2023-05-04T23:30:41.137Z,11.05
2023-05-04T23:33:09.447Z,11.03
2023-05-04T23:35:39.112Z,11.03
2023-05-04T23:38:07.628Z,10.98
2023-05-04T23:45:55.296Z,11.12
2023-05-04T23:48:23.925Z,11.04
2023-05-04T23:50:57.613Z,11.09
2023-05-04T23:53:25.936Z,11.05
